sensor_id;sensor_type;location;lat;lon;timestamp;P1;durP1;ratioP1;P2;durP2;ratioP2
71502;SDS011;59322;51.382;7.372;2023-08-12T00:00:59;134.30;;;124.53;;
71502;SDS011;59322;51.382;7.372;2023-08-12T00:03:24;132.80;;;122.95;;
71502;SDS011;59322;51.382;7.372;2023-08-12T00:05:51;134.52;;;124.82;;
71502;SDS011;59322;51.382;7.372;2023-08-12T00:08:17;127.22;;;118.07;;
71502;SDS011;59322;51.382;7.372;2023-08-12T00:10:43;125.93;;;116.47;;
71502;SDS011;59322;51.382;7.372;2023-08-12T00:13:09;127.05;;;117.38;;
71502;SDS011;59322;51.382;7.372;2023-08-12T00:15:35;127.05;;;117.13;;
71502;SDS011;59322;51.382;7.372;2023-08-12T00:18:01;131.82;;;122.22;;
71502;SDS011;59322;51.382;7.372;2023-08-12T00:20:27;122.97;;;113.88;;
71502;SDS011;59322;51.382;7.372;2023-08-12T00:22:53;126.82;;;117.47;;
71502;SDS011;59322;51.382;7.372;2023-08-12T00:25:19;128.90;;;119.22;;
71502;SDS011;59322;51.382;7.372;2023-08-12T00:27:44;132.48;;;122.50;;
71502;SDS011;59322;51.382;7.372;2023-08-12T00:30:10;127.13;;;117.75;;
71502;SDS011;59322;51.382;7.372;2023-08-12T00:32:36;130.20;;;120.53;;
71502;SDS011;59322;51.382;7.372;2023-08-12T00:35:02;126.50;;;116.57;;
71502;SDS011;59322;51.382;7.372;2023-08-12T00:37:28;123.47;;;114.50;;
71502;SDS011;59322;51.382;7.372;2023-08-12T00:39:54;129.98;;;119.93;;
71502;SDS011;59322;51.382;7.372;2023-08-12T00:42:20;127.50;;;118.03;;
71502;SDS011;59322;51.382;7.372;2023-08-12T00:44:46;126.57;;;116.75;;
71502;SDS011;59322;51.382;7.372;2023-08-12T00:47:12;127.72;;;118.22;;
71502;SDS011;59322;51.382;7.372;2023-08-12T00:49:38;134.07;;;123.40;;
71502;SDS011;59322;51.382;7.372;2023-08-12T00:52:05;126.25;;;116.53;;
71502;SDS011;59322;51.382;7.372;2023-08-12T00:54:31;135.32;;;124.55;;
71502;SDS011;59322;51.382;7.372;2023-08-12T00:56:57;134.63;;;123.88;;
71502;SDS011;59322;51.382;7.372;2023-08-12T00:59:23;127.57;;;117.70;;
71502;SDS011;59322;51.382;7.372;2023-08-12T01:01:49;132.38;;;121.95;;
71502;SDS011;59322;51.382;7.372;2023-08-12T01:04:15;126.63;;;116.80;;
71502;SDS011;59322;51.382;7.372;2023-08-12T01:06:41;125.95;;;116.43;;
71502;SDS011;59322;51.382;7.372;2023-08-12T01:09:07;125.28;;;115.18;;
71502;SDS011;59322;51.382;7.372;2023-08-12T01:14:17;130.55;;;120.10;;
71502;SDS011;59322;51.382;7.372;2023-08-12T01:16:46;127.28;;;117.05;;
71502;SDS011;59322;51.382;7.372;2023-08-12T01:19:29;127.65;;;117.18;;
71502;SDS011;59322;51.382;7.372;2023-08-12T01:21:55;125.90;;;115.90;;
71502;SDS011;59322;51.382;7.372;2023-08-12T01:24:21;116.47;;;107.40;;
71502;SDS011;59322;51.382;7.372;2023-08-12T01:26:47;124.82;;;114.90;;
71502;SDS011;59322;51.382;7.372;2023-08-12T01:29:13;126.22;;;115.78;;
71502;SDS011;59322;51.382;7.372;2023-08-12T01:31:41;123.32;;;113.53;;
71502;SDS011;59322;51.382;7.372;2023-08-12T01:34:12;123.13;;;113.13;;
71502;SDS011;59322;51.382;7.372;2023-08-12T01:36:40;119.05;;;109.70;;
71502;SDS011;59322;51.382;7.372;2023-08-12T01:39:07;129.60;;;119.22;;
71502;SDS011;59322;51.382;7.372;2023-08-12T01:41:34;131.93;;;121.50;;
71502;SDS011;59322;51.382;7.372;2023-08-12T01:44:01;132.57;;;122.40;;
71502;SDS011;59322;51.382;7.372;2023-08-12T01:46:27;134.98;;;124.57;;
71502;SDS011;59322;51.382;7.372;2023-08-12T01:48:53;122.78;;;112.93;;
71502;SDS011;59322;51.382;7.372;2023-08-12T01:51:18;131.35;;;121.28;;
71502;SDS011;59322;51.382;7.372;2023-08-12T01:53:44;129.73;;;119.60;;
71502;SDS011;59322;51.382;7.372;2023-08-12T01:56:10;127.55;;;117.35;;
71502;SDS011;59322;51.382;7.372;2023-08-12T01:58:36;126.60;;;116.78;;
71502;SDS011;59322;51.382;7.372;2023-08-12T02:01:02;130.40;;;120.20;;
71502;SDS011;59322;51.382;7.372;2023-08-12T02:03:28;124.55;;;114.95;;
71502;SDS011;59322;51.382;7.372;2023-08-12T02:05:54;128.70;;;119.10;;
71502;SDS011;59322;51.382;7.372;2023-08-12T02:08:20;126.88;;;116.57;;
71502;SDS011;59322;51.382;7.372;2023-08-12T02:10:46;122.32;;;111.90;;
71502;SDS011;59322;51.382;7.372;2023-08-12T02:13:11;122.50;;;112.20;;
71502;SDS011;59322;51.382;7.372;2023-08-12T02:15:37;126.03;;;116.40;;
71502;SDS011;59322;51.382;7.372;2023-08-12T02:18:03;126.65;;;116.63;;
71502;SDS011;59322;51.382;7.372;2023-08-12T02:20:29;95.85;;;87.38;;
71502;SDS011;59322;51.382;7.372;2023-08-12T02:22:55;93.10;;;84.53;;
71502;SDS011;59322;51.382;7.372;2023-08-12T02:25:21;99.35;;;90.32;;
71502;SDS011;59322;51.382;7.372;2023-08-12T02:27:47;94.95;;;86.40;;
71502;SDS011;59322;51.382;7.372;2023-08-12T02:30:13;90.85;;;82.32;;
71502;SDS011;59322;51.382;7.372;2023-08-12T02:32:39;91.88;;;83.25;;
71502;SDS011;59322;51.382;7.372;2023-08-12T02:35:05;98.70;;;89.68;;
71502;SDS011;59322;51.382;7.372;2023-08-12T02:37:31;95.93;;;87.22;;
71502;SDS011;59322;51.382;7.372;2023-08-12T02:39:57;90.28;;;81.82;;
71502;SDS011;59322;51.382;7.372;2023-08-12T02:42:23;89.70;;;81.78;;
71502;SDS011;59322;51.382;7.372;2023-08-12T02:44:48;88.45;;;80.47;;
71502;SDS011;59322;51.382;7.372;2023-08-12T02:47:14;87.82;;;80.13;;
71502;SDS011;59322;51.382;7.372;2023-08-12T02:49:40;88.10;;;80.22;;
71502;SDS011;59322;51.382;7.372;2023-08-12T02:52:06;81.95;;;74.63;;
71502;SDS011;59322;51.382;7.372;2023-08-12T02:54:32;84.80;;;77.82;;
71502;SDS011;59322;51.382;7.372;2023-08-12T02:56:58;81.80;;;74.50;;
71502;SDS011;59322;51.382;7.372;2023-08-12T02:59:24;82.53;;;75.07;;
71502;SDS011;59322;51.382;7.372;2023-08-12T03:01:50;78.72;;;71.88;;
71502;SDS011;59322;51.382;7.372;2023-08-12T03:04:16;84.90;;;77.40;;
71502;SDS011;59322;51.382;7.372;2023-08-12T03:06:42;84.50;;;77.30;;
71502;SDS011;59322;51.382;7.372;2023-08-12T03:09:07;85.78;;;77.90;;
71502;SDS011;59322;51.382;7.372;2023-08-12T03:11:33;89.07;;;81.10;;
71502;SDS011;59322;51.382;7.372;2023-08-12T03:13:59;89.60;;;80.97;;
71502;SDS011;59322;51.382;7.372;2023-08-12T03:16:25;86.28;;;78.78;;
71502;SDS011;59322;51.382;7.372;2023-08-12T03:18:51;80.80;;;73.85;;
71502;SDS011;59322;51.382;7.372;2023-08-12T03:21:17;82.30;;;75.07;;
71502;SDS011;59322;51.382;7.372;2023-08-12T03:23:43;81.22;;;74.40;;
71502;SDS011;59322;51.382;7.372;2023-08-12T03:26:09;81.35;;;74.28;;
71502;SDS011;59322;51.382;7.372;2023-08-12T03:28:35;78.30;;;71.53;;
71502;SDS011;59322;51.382;7.372;2023-08-12T03:31:01;81.80;;;75.18;;
71502;SDS011;59322;51.382;7.372;2023-08-12T03:33:26;83.80;;;76.50;;
71502;SDS011;59322;51.382;7.372;2023-08-12T03:35:52;80.78;;;73.88;;
71502;SDS011;59322;51.382;7.372;2023-08-12T03:38:18;76.72;;;70.30;;
71502;SDS011;59322;51.382;7.372;2023-08-12T03:40:45;81.15;;;74.30;;
71502;SDS011;59322;51.382;7.372;2023-08-12T03:43:11;85.07;;;78.25;;
71502;SDS011;59322;51.382;7.372;2023-08-12T03:45:40;88.28;;;80.65;;
71502;SDS011;59322;51.382;7.372;2023-08-12T03:48:06;87.55;;;80.47;;
71502;SDS011;59322;51.382;7.372;2023-08-12T03:50:38;92.07;;;84.75;;
71502;SDS011;59322;51.382;7.372;2023-08-12T03:53:04;92.05;;;84.82;;
71502;SDS011;59322;51.382;7.372;2023-08-12T03:55:31;115.10;;;106.97;;
71502;SDS011;59322;51.382;7.372;2023-08-12T03:57:57;128.50;;;119.43;;
71502;SDS011;59322;51.382;7.372;2023-08-12T04:00:23;118.93;;;110.63;;
71502;SDS011;59322;51.382;7.372;2023-08-12T04:02:49;164.23;;;153.45;;
71502;SDS011;59322;51.382;7.372;2023-08-12T04:05:15;128.50;;;119.50;;
71502;SDS011;59322;51.382;7.372;2023-08-12T04:07:41;98.85;;;91.88;;
71502;SDS011;59322;51.382;7.372;2023-08-12T04:10:07;96.63;;;89.32;;
71502;SDS011;59322;51.382;7.372;2023-08-12T04:12:33;105.75;;;97.90;;
71502;SDS011;59322;51.382;7.372;2023-08-12T04:14:58;105.78;;;97.95;;
71502;SDS011;59322;51.382;7.372;2023-08-12T04:17:24;98.20;;;90.88;;
71502;SDS011;59322;51.382;7.372;2023-08-12T04:19:50;96.45;;;89.18;;
71502;SDS011;59322;51.382;7.372;2023-08-12T04:22:16;101.40;;;93.47;;
71502;SDS011;59322;51.382;7.372;2023-08-12T04:24:42;92.38;;;85.45;;
71502;SDS011;59322;51.382;7.372;2023-08-12T04:27:08;96.03;;;88.78;;
71502;SDS011;59322;51.382;7.372;2023-08-12T04:29:34;95.70;;;88.43;;
71502;SDS011;59322;51.382;7.372;2023-08-12T04:32:00;93.85;;;86.28;;
71502;SDS011;59322;51.382;7.372;2023-08-12T04:34:26;95.13;;;87.82;;
71502;SDS011;59322;51.382;7.372;2023-08-12T04:36:52;98.30;;;90.35;;
71502;SDS011;59322;51.382;7.372;2023-08-12T04:39:18;96.25;;;88.95;;
71502;SDS011;59322;51.382;7.372;2023-08-12T04:41:44;102.82;;;94.97;;
71502;SDS011;59322;51.382;7.372;2023-08-12T04:44:10;104.70;;;96.22;;
71502;SDS011;59322;51.382;7.372;2023-08-12T04:46:35;103.90;;;96.22;;
71502;SDS011;59322;51.382;7.372;2023-08-12T04:49:01;104.18;;;96.05;;
71502;SDS011;59322;51.382;7.372;2023-08-12T04:51:27;108.88;;;100.22;;
71502;SDS011;59322;51.382;7.372;2023-08-12T04:53:53;102.28;;;94.75;;
71502;SDS011;59322;51.382;7.372;2023-08-12T04:56:19;120.65;;;111.80;;
71502;SDS011;59322;51.382;7.372;2023-08-12T04:58:45;115.15;;;106.88;;
71502;SDS011;59322;51.382;7.372;2023-08-12T05:01:11;115.72;;;106.93;;
71502;SDS011;59322;51.382;7.372;2023-08-12T05:03:37;104.20;;;96.35;;
71502;SDS011;59322;51.382;7.372;2023-08-12T05:06:03;116.10;;;107.40;;
71502;SDS011;59322;51.382;7.372;2023-08-12T05:08:29;113.35;;;104.68;;
71502;SDS011;59322;51.382;7.372;2023-08-12T05:10:55;113.70;;;105.38;;
71502;SDS011;59322;51.382;7.372;2023-08-12T05:13:21;101.35;;;93.95;;
71502;SDS011;59322;51.382;7.372;2023-08-12T05:15:47;101.85;;;94.07;;
71502;SDS011;59322;51.382;7.372;2023-08-12T05:18:13;101.95;;;94.03;;
71502;SDS011;59322;51.382;7.372;2023-08-12T05:20:39;107.28;;;99.22;;
71502;SDS011;59322;51.382;7.372;2023-08-12T05:23:05;103.03;;;95.18;;
71502;SDS011;59322;51.382;7.372;2023-08-12T05:25:31;94.63;;;87.18;;
71502;SDS011;59322;51.382;7.372;2023-08-12T05:27:57;92.47;;;85.50;;
71502;SDS011;59322;51.382;7.372;2023-08-12T05:30:23;94.88;;;87.25;;
71502;SDS011;59322;51.382;7.372;2023-08-12T05:32:49;88.20;;;81.40;;
71502;SDS011;59322;51.382;7.372;2023-08-12T05:35:15;90.03;;;83.20;;
71502;SDS011;59322;51.382;7.372;2023-08-12T05:37:41;92.65;;;85.80;;
71502;SDS011;59322;51.382;7.372;2023-08-12T05:40:10;78.55;;;72.40;;
71502;SDS011;59322;51.382;7.372;2023-08-12T05:42:36;78.53;;;72.50;;
71502;SDS011;59322;51.382;7.372;2023-08-12T05:45:02;72.10;;;66.32;;
71502;SDS011;59322;51.382;7.372;2023-08-12T05:47:28;69.78;;;64.25;;
71502;SDS011;59322;51.382;7.372;2023-08-12T05:49:54;72.55;;;66.90;;
71502;SDS011;59322;51.382;7.372;2023-08-12T05:52:20;68.78;;;63.55;;
71502;SDS011;59322;51.382;7.372;2023-08-12T05:54:46;63.63;;;58.88;;
71502;SDS011;59322;51.382;7.372;2023-08-12T05:57:11;71.07;;;65.80;;
71502;SDS011;59322;51.382;7.372;2023-08-12T05:59:37;61.67;;;57.25;;
71502;SDS011;59322;51.382;7.372;2023-08-12T06:02:03;62.55;;;58.22;;
71502;SDS011;59322;51.382;7.372;2023-08-12T06:04:29;71.13;;;66.45;;
71502;SDS011;59322;51.382;7.372;2023-08-12T06:06:55;86.38;;;81.22;;
71502;SDS011;59322;51.382;7.372;2023-08-12T06:09:21;179.75;;;169.68;;
71502;SDS011;59322;51.382;7.372;2023-08-12T06:11:47;150.20;;;141.63;;
71502;SDS011;59322;51.382;7.372;2023-08-12T06:14:13;291.60;;;275.67;;
71502;SDS011;59322;51.382;7.372;2023-08-12T06:16:39;295.88;;;279.63;;
71502;SDS011;59322;51.382;7.372;2023-08-12T06:19:05;226.65;;;214.43;;
71502;SDS011;59322;51.382;7.372;2023-08-12T06:21:31;287.90;;;272.08;;
71502;SDS011;59322;51.382;7.372;2023-08-12T06:23:57;225.45;;;212.93;;
71502;SDS011;59322;51.382;7.372;2023-08-12T06:26:22;184.60;;;174.43;;
71502;SDS011;59322;51.382;7.372;2023-08-12T06:28:48;168.65;;;159.35;;
71502;SDS011;59322;51.382;7.372;2023-08-12T06:31:14;171.23;;;161.75;;
71502;SDS011;59322;51.382;7.372;2023-08-12T06:33:40;163.45;;;153.90;;
71502;SDS011;59322;51.382;7.372;2023-08-12T06:36:06;161.93;;;152.70;;
71502;SDS011;59322;51.382;7.372;2023-08-12T06:38:32;202.55;;;191.40;;
71502;SDS011;59322;51.382;7.372;2023-08-12T06:40:58;145.20;;;137.05;;
71502;SDS011;59322;51.382;7.372;2023-08-12T06:43:24;202.90;;;191.60;;
71502;SDS011;59322;51.382;7.372;2023-08-12T06:45:49;119.32;;;112.68;;
71502;SDS011;59322;51.382;7.372;2023-08-12T06:48:15;110.05;;;103.68;;
71502;SDS011;59322;51.382;7.372;2023-08-12T06:50:41;91.13;;;85.72;;
71502;SDS011;59322;51.382;7.372;2023-08-12T06:53:07;89.60;;;84.30;;
71502;SDS011;59322;51.382;7.372;2023-08-12T06:55:33;86.50;;;81.40;;
71502;SDS011;59322;51.382;7.372;2023-08-12T06:57:59;86.57;;;81.45;;
71502;SDS011;59322;51.382;7.372;2023-08-12T07:00:25;79.65;;;74.63;;
71502;SDS011;59322;51.382;7.372;2023-08-12T07:02:51;70.25;;;65.82;;
71502;SDS011;59322;51.382;7.372;2023-08-12T07:05:17;65.70;;;61.53;;
71502;SDS011;59322;51.382;7.372;2023-08-12T07:07:43;70.07;;;65.85;;
71502;SDS011;59322;51.382;7.372;2023-08-12T07:10:09;70.82;;;66.57;;
71502;SDS011;59322;51.382;7.372;2023-08-12T07:12:35;72.88;;;68.57;;
71502;SDS011;59322;51.382;7.372;2023-08-12T07:15:01;74.28;;;69.97;;
71502;SDS011;59322;51.382;7.372;2023-08-12T07:17:27;64.60;;;60.60;;
71502;SDS011;59322;51.382;7.372;2023-08-12T07:19:53;73.45;;;69.15;;
71502;SDS011;59322;51.382;7.372;2023-08-12T07:22:19;78.93;;;74.38;;
71502;SDS011;59322;51.382;7.372;2023-08-12T07:24:45;59.38;;;55.80;;
71502;SDS011;59322;51.382;7.372;2023-08-12T07:27:11;58.45;;;54.60;;
71502;SDS011;59322;51.382;7.372;2023-08-12T07:29:37;56.92;;;53.42;;
71502;SDS011;59322;51.382;7.372;2023-08-12T07:32:03;60.45;;;56.78;;
71502;SDS011;59322;51.382;7.372;2023-08-12T07:34:29;62.60;;;58.85;;
71502;SDS011;59322;51.382;7.372;2023-08-12T07:36:55;58.58;;;54.90;;
71502;SDS011;59322;51.382;7.372;2023-08-12T07:39:21;52.28;;;49.17;;
71502;SDS011;59322;51.382;7.372;2023-08-12T07:41:46;56.00;;;52.70;;
71502;SDS011;59322;51.382;7.372;2023-08-12T07:44:12;69.10;;;64.95;;
71502;SDS011;59322;51.382;7.372;2023-08-12T07:46:38;71.60;;;67.50;;
71502;SDS011;59322;51.382;7.372;2023-08-12T07:49:04;82.18;;;77.50;;
71502;SDS011;59322;51.382;7.372;2023-08-12T07:51:30;129.95;;;122.82;;
71502;SDS011;59322;51.382;7.372;2023-08-12T07:53:56;171.70;;;162.25;;
71502;SDS011;59322;51.382;7.372;2023-08-12T07:56:22;188.27;;;178.02;;
71502;SDS011;59322;51.382;7.372;2023-08-12T07:58:48;295.02;;;278.60;;
71502;SDS011;59322;51.382;7.372;2023-08-12T08:01:13;285.00;;;269.40;;
71502;SDS011;59322;51.382;7.372;2023-08-12T08:03:39;191.35;;;181.02;;
71502;SDS011;59322;51.382;7.372;2023-08-12T08:06:05;129.40;;;122.43;;
71502;SDS011;59322;51.382;7.372;2023-08-12T08:08:31;120.20;;;113.60;;
71502;SDS011;59322;51.382;7.372;2023-08-12T08:10:57;146.23;;;138.27;;
71502;SDS011;59322;51.382;7.372;2023-08-12T08:13:23;113.40;;;107.15;;
71502;SDS011;59322;51.382;7.372;2023-08-12T08:15:49;108.55;;;102.65;;
71502;SDS011;59322;51.382;7.372;2023-08-12T08:18:15;130.73;;;123.53;;
71502;SDS011;59322;51.382;7.372;2023-08-12T08:20:43;109.25;;;103.30;;
71502;SDS011;59322;51.382;7.372;2023-08-12T08:23:10;100.95;;;95.47;;
71502;SDS011;59322;51.382;7.372;2023-08-12T08:25:36;103.80;;;98.18;;
71502;SDS011;59322;51.382;7.372;2023-08-12T08:28:01;103.88;;;98.22;;
71502;SDS011;59322;51.382;7.372;2023-08-12T08:30:27;98.07;;;92.60;;
71502;SDS011;59322;51.382;7.372;2023-08-12T08:32:53;104.13;;;98.32;;
71502;SDS011;59322;51.382;7.372;2023-08-12T08:35:19;101.43;;;95.85;;
71502;SDS011;59322;51.382;7.372;2023-08-12T08:37:45;109.38;;;103.47;;
71502;SDS011;59322;51.382;7.372;2023-08-12T08:40:11;106.72;;;100.78;;
71502;SDS011;59322;51.382;7.372;2023-08-12T08:42:37;121.43;;;114.80;;
71502;SDS011;59322;51.382;7.372;2023-08-12T08:45:03;115.82;;;109.47;;
71502;SDS011;59322;51.382;7.372;2023-08-12T08:47:33;113.95;;;107.78;;
71502;SDS011;59322;51.382;7.372;2023-08-12T08:49:59;144.02;;;136.20;;
71502;SDS011;59322;51.382;7.372;2023-08-12T08:52:26;107.50;;;101.78;;
71502;SDS011;59322;51.382;7.372;2023-08-12T08:54:52;114.25;;;108.05;;
71502;SDS011;59322;51.382;7.372;2023-08-12T08:57:18;102.30;;;96.78;;
71502;SDS011;59322;51.382;7.372;2023-08-12T08:59:44;114.30;;;108.22;;
71502;SDS011;59322;51.382;7.372;2023-08-12T09:02:17;113.88;;;107.68;;
71502;SDS011;59322;51.382;7.372;2023-08-12T09:04:46;107.63;;;101.88;;
71502;SDS011;59322;51.382;7.372;2023-08-12T09:07:12;115.43;;;109.28;;
71502;SDS011;59322;51.382;7.372;2023-08-12T09:09:38;122.95;;;116.30;;
71502;SDS011;59322;51.382;7.372;2023-08-12T09:12:05;124.32;;;117.50;;
71502;SDS011;59322;51.382;7.372;2023-08-12T09:14:31;135.10;;;127.82;;
71502;SDS011;59322;51.382;7.372;2023-08-12T09:16:58;116.93;;;110.72;;
71502;SDS011;59322;51.382;7.372;2023-08-12T09:19:24;137.90;;;130.52;;
71502;SDS011;59322;51.382;7.372;2023-08-12T09:21:53;122.95;;;116.43;;
71502;SDS011;59322;51.382;7.372;2023-08-12T09:24:26;109.70;;;103.82;;
71502;SDS011;59322;51.382;7.372;2023-08-12T09:26:52;118.45;;;112.10;;
71502;SDS011;59322;51.382;7.372;2023-08-12T09:29:18;118.38;;;111.97;;
71502;SDS011;59322;51.382;7.372;2023-08-12T09:31:47;132.05;;;124.88;;
71502;SDS011;59322;51.382;7.372;2023-08-12T09:34:13;131.93;;;124.68;;
71502;SDS011;59322;51.382;7.372;2023-08-12T09:36:39;117.70;;;111.40;;
71502;SDS011;59322;51.382;7.372;2023-08-12T09:39:06;113.40;;;107.35;;
71502;SDS011;59322;51.382;7.372;2023-08-12T09:41:32;123.40;;;116.60;;
71502;SDS011;59322;51.382;7.372;2023-08-12T09:43:58;118.20;;;111.88;;
71502;SDS011;59322;51.382;7.372;2023-08-12T09:46:24;112.95;;;106.65;;
71502;SDS011;59322;51.382;7.372;2023-08-12T09:48:50;104.95;;;99.35;;
71502;SDS011;59322;51.382;7.372;2023-08-12T09:51:16;115.60;;;109.32;;
71502;SDS011;59322;51.382;7.372;2023-08-12T09:53:42;114.63;;;108.32;;
71502;SDS011;59322;51.382;7.372;2023-08-12T09:56:10;146.23;;;138.40;;
71502;SDS011;59322;51.382;7.372;2023-08-12T09:58:37;140.25;;;132.68;;
71502;SDS011;59322;51.382;7.372;2023-08-12T10:01:03;136.13;;;128.75;;
71502;SDS011;59322;51.382;7.372;2023-08-12T10:03:29;167.80;;;158.93;;
71502;SDS011;59322;51.382;7.372;2023-08-12T10:05:56;207.93;;;196.68;;
71502;SDS011;59322;51.382;7.372;2023-08-12T10:08:23;197.18;;;186.98;;
71502;SDS011;59322;51.382;7.372;2023-08-12T10:10:49;173.77;;;164.68;;
71502;SDS011;59322;51.382;7.372;2023-08-12T10:13:14;137.98;;;130.60;;
71502;SDS011;59322;51.382;7.372;2023-08-12T10:15:41;133.00;;;125.90;;
71502;SDS011;59322;51.382;7.372;2023-08-12T10:18:07;110.07;;;104.25;;
71502;SDS011;59322;51.382;7.372;2023-08-12T10:20:33;130.48;;;123.38;;
71502;SDS011;59322;51.382;7.372;2023-08-12T10:23:01;114.95;;;108.57;;
71502;SDS011;59322;51.382;7.372;2023-08-12T10:25:31;100.13;;;94.43;;
71502;SDS011;59322;51.382;7.372;2023-08-12T10:27:57;110.13;;;104.13;;
71502;SDS011;59322;51.382;7.372;2023-08-12T10:30:23;97.32;;;92.13;;
71502;SDS011;59322;51.382;7.372;2023-08-12T10:32:49;94.60;;;89.50;;
71502;SDS011;59322;51.382;7.372;2023-08-12T10:35:15;107.68;;;101.82;;
71502;SDS011;59322;51.382;7.372;2023-08-12T10:37:41;111.55;;;105.65;;
71502;SDS011;59322;51.382;7.372;2023-08-12T10:40:18;160.68;;;152.10;;
71502;SDS011;59322;51.382;7.372;2023-08-12T10:42:45;145.55;;;137.82;;
71502;SDS011;59322;51.382;7.372;2023-08-12T10:45:12;157.05;;;148.75;;
71502;SDS011;59322;51.382;7.372;2023-08-12T10:47:39;136.65;;;129.35;;
71502;SDS011;59322;51.382;7.372;2023-08-12T10:50:05;208.73;;;197.80;;
71502;SDS011;59322;51.382;7.372;2023-08-12T10:52:32;189.00;;;179.10;;
71502;SDS011;59322;51.382;7.372;2023-08-12T10:58:04;155.95;;;147.75;;
71502;SDS011;59322;51.382;7.372;2023-08-12T11:00:34;178.77;;;169.15;;
71502;SDS011;59322;51.382;7.372;2023-08-12T11:03:00;190.02;;;180.15;;
71502;SDS011;59322;51.382;7.372;2023-08-12T11:05:37;226.00;;;214.30;;
71502;SDS011;59322;51.382;7.372;2023-08-12T11:08:03;165.88;;;157.10;;
71502;SDS011;59322;51.382;7.372;2023-08-12T11:10:31;224.55;;;212.95;;
71502;SDS011;59322;51.382;7.372;2023-08-12T11:12:58;148.15;;;140.07;;
71502;SDS011;59322;51.382;7.372;2023-08-12T11:17:55;152.32;;;144.25;;
71502;SDS011;59322;51.382;7.372;2023-08-12T11:20:21;136.30;;;129.05;;
71502;SDS011;59322;51.382;7.372;2023-08-12T11:22:47;91.75;;;86.85;;
71502;SDS011;59322;51.382;7.372;2023-08-12T11:25:13;174.20;;;164.82;;
71502;SDS011;59322;51.382;7.372;2023-08-12T11:27:48;203.68;;;192.95;;
71502;SDS011;59322;51.382;7.372;2023-08-12T11:30:15;215.32;;;204.20;;
71502;SDS011;59322;51.382;7.372;2023-08-12T11:32:45;207.55;;;196.85;;
71502;SDS011;59322;51.382;7.372;2023-08-12T11:35:12;197.63;;;187.43;;
71502;SDS011;59322;51.382;7.372;2023-08-12T11:37:38;171.48;;;162.43;;
71502;SDS011;59322;51.382;7.372;2023-08-12T11:40:05;157.55;;;149.25;;
71502;SDS011;59322;51.382;7.372;2023-08-12T11:42:31;156.65;;;148.27;;
71502;SDS011;59322;51.382;7.372;2023-08-12T11:44:57;133.02;;;125.90;;
71502;SDS011;59322;51.382;7.372;2023-08-12T11:47:23;101.45;;;95.50;;
71502;SDS011;59322;51.382;7.372;2023-08-12T11:49:49;83.68;;;79.07;;
71502;SDS011;59322;51.382;7.372;2023-08-12T11:52:15;74.72;;;70.30;;
71502;SDS011;59322;51.382;7.372;2023-08-12T11:54:41;86.07;;;81.28;;
71502;SDS011;59322;51.382;7.372;2023-08-12T11:57:07;121.65;;;115.18;;
71502;SDS011;59322;51.382;7.372;2023-08-12T11:59:33;125.03;;;118.32;;
71502;SDS011;59322;51.382;7.372;2023-08-12T12:02:01;133.32;;;126.03;;
71502;SDS011;59322;51.382;7.372;2023-08-12T12:04:27;125.88;;;119.03;;
71502;SDS011;59322;51.382;7.372;2023-08-12T12:06:53;101.72;;;96.00;;
71502;SDS011;59322;51.382;7.372;2023-08-12T12:09:19;86.88;;;81.93;;
71502;SDS011;59322;51.382;7.372;2023-08-12T12:11:45;71.20;;;67.22;;
71502;SDS011;59322;51.382;7.372;2023-08-12T12:14:11;69.03;;;64.70;;
71502;SDS011;59322;51.382;7.372;2023-08-12T12:16:44;62.97;;;59.42;;
71502;SDS011;59322;51.382;7.372;2023-08-12T12:21:39;56.58;;;53.22;;
71502;SDS011;59322;51.382;7.372;2023-08-12T12:24:05;56.17;;;52.90;;
71502;SDS011;59322;51.382;7.372;2023-08-12T12:26:32;56.85;;;53.70;;
71502;SDS011;59322;51.382;7.372;2023-08-12T12:28:58;60.85;;;57.42;;
71502;SDS011;59322;51.382;7.372;2023-08-12T12:31:23;94.88;;;89.72;;
71502;SDS011;59322;51.382;7.372;2023-08-12T12:33:49;121.35;;;114.82;;
71502;SDS011;59322;51.382;7.372;2023-08-12T12:36:15;171.13;;;162.02;;
71502;SDS011;59322;51.382;7.372;2023-08-12T12:38:41;334.02;;;315.45;;
71502;SDS011;59322;51.382;7.372;2023-08-12T12:41:07;107.00;;;101.30;;
71502;SDS011;59322;51.382;7.372;2023-08-12T12:43:34;102.93;;;97.55;;
71502;SDS011;59322;51.382;7.372;2023-08-12T12:46:00;109.65;;;103.82;;
71502;SDS011;59322;51.382;7.372;2023-08-12T12:48:26;108.40;;;102.55;;
71502;SDS011;59322;51.382;7.372;2023-08-12T12:50:52;120.63;;;114.28;;
71502;SDS011;59322;51.382;7.372;2023-08-12T12:53:18;120.55;;;114.18;;
71502;SDS011;59322;51.382;7.372;2023-08-12T12:55:43;122.97;;;116.60;;
71502;SDS011;59322;51.382;7.372;2023-08-12T12:58:09;143.40;;;135.95;;
71502;SDS011;59322;51.382;7.372;2023-08-12T13:00:35;140.05;;;132.65;;
71502;SDS011;59322;51.382;7.372;2023-08-12T13:03:01;130.43;;;123.65;;
71502;SDS011;59322;51.382;7.372;2023-08-12T13:05:27;124.68;;;118.13;;
71502;SDS011;59322;51.382;7.372;2023-08-12T13:07:53;161.73;;;153.25;;
71502;SDS011;59322;51.382;7.372;2023-08-12T13:10:19;110.60;;;104.85;;
71502;SDS011;59322;51.382;7.372;2023-08-12T13:12:45;108.13;;;102.45;;
71502;SDS011;59322;51.382;7.372;2023-08-12T13:15:11;110.30;;;104.40;;
71502;SDS011;59322;51.382;7.372;2023-08-12T13:17:37;112.93;;;106.97;;
71502;SDS011;59322;51.382;7.372;2023-08-12T13:20:03;130.70;;;123.75;;
71502;SDS011;59322;51.382;7.372;2023-08-12T13:22:29;133.43;;;126.35;;
71502;SDS011;59322;51.382;7.372;2023-08-12T13:24:55;168.00;;;158.63;;
71502;SDS011;59322;51.382;7.372;2023-08-12T13:27:21;117.25;;;111.03;;
71502;SDS011;59322;51.382;7.372;2023-08-12T13:29:47;119.70;;;113.20;;
71502;SDS011;59322;51.382;7.372;2023-08-12T13:32:12;108.60;;;102.68;;
71502;SDS011;59322;51.382;7.372;2023-08-12T13:34:38;100.45;;;95.05;;
71502;SDS011;59322;51.382;7.372;2023-08-12T13:37:04;88.55;;;83.53;;
71502;SDS011;59322;51.382;7.372;2023-08-12T13:39:30;81.25;;;76.85;;
71502;SDS011;59322;51.382;7.372;2023-08-12T13:41:56;61.28;;;57.85;;
71502;SDS011;59322;51.382;7.372;2023-08-12T13:44:22;56.85;;;53.67;;
71502;SDS011;59322;51.382;7.372;2023-08-12T13:46:48;70.40;;;66.50;;
71502;SDS011;59322;51.382;7.372;2023-08-12T13:49:14;61.00;;;57.50;;
71502;SDS011;59322;51.382;7.372;2023-08-12T13:51:39;59.83;;;56.22;;
71502;SDS011;59322;51.382;7.372;2023-08-12T13:54:05;51.58;;;48.50;;
71502;SDS011;59322;51.382;7.372;2023-08-12T13:56:31;53.42;;;50.35;;
71502;SDS011;59322;51.382;7.372;2023-08-12T13:58:57;50.00;;;47.00;;
71502;SDS011;59322;51.382;7.372;2023-08-12T14:01:23;49.13;;;46.17;;
71502;SDS011;59322;51.382;7.372;2023-08-12T14:03:49;44.88;;;42.30;;
71502;SDS011;59322;51.382;7.372;2023-08-12T14:06:15;48.53;;;45.65;;
71502;SDS011;59322;51.382;7.372;2023-08-12T14:08:41;48.05;;;45.17;;
71502;SDS011;59322;51.382;7.372;2023-08-12T14:11:07;51.10;;;47.92;;